createdAt,value
2022-10-11T00:00:57.885Z,8.79
2022-10-11T00:01:57.743Z,8.78
2022-10-11T00:02:57.741Z,8.76
2022-10-11T00:03:57.740Z,8.76
2022-10-11T00:04:57.657Z,8.75
2022-10-11T00:05:57.758Z,8.75
2022-10-11T00:06:57.580Z,8.75
2022-10-11T00:07:57.599Z,8.75
2022-10-11T00:08:57.649Z,8.71
2022-10-11T00:09:57.911Z,8.71
2022-10-11T00:10:57.834Z,8.71
2022-10-11T00:11:57.686Z,8.70
2022-10-11T00:12:57.526Z,8.70
2022-10-11T00:13:57.599Z,8.70
2022-10-11T00:14:57.787Z,8.70
2022-10-11T00:15:57.943Z,8.70
2022-10-11T00:16:57.415Z,8.70
2022-10-11T00:18:00.142Z,8.68
2022-10-11T00:18:57.650Z,8.65
2022-10-11T00:19:57.660Z,8.65
2022-10-11T00:20:57.816Z,8.65
2022-10-11T00:21:57.656Z,8.67
2022-10-11T00:22:57.546Z,8.68
2022-10-11T00:23:57.955Z,8.68
2022-10-11T00:24:58.072Z,8.68
2022-10-11T00:25:58.554Z,8.64
2022-10-11T00:26:57.895Z,8.64
2022-10-11T00:27:57.444Z,8.63
2022-10-11T00:28:57.586Z,8.64
2022-10-11T00:29:57.703Z,8.64
2022-10-11T00:30:57.495Z,8.63
2022-10-11T00:31:57.655Z,8.64
2022-10-11T00:32:57.675Z,8.63
2022-10-11T00:33:58.177Z,8.63
2022-10-11T00:34:57.429Z,8.60
2022-10-11T00:35:57.856Z,8.60
2022-10-11T00:36:58.020Z,8.57
2022-10-11T00:37:57.954Z,8.55
2022-10-11T00:38:57.623Z,8.55
2022-10-11T00:39:57.607Z,8.55
2022-10-11T00:40:57.787Z,8.54
2022-10-11T00:41:57.957Z,8.57
2022-10-11T00:42:58.098Z,8.57
2022-10-11T00:43:57.637Z,8.57
2022-10-11T00:44:57.926Z,8.58
2022-10-11T00:45:58.330Z,8.58
2022-10-11T00:46:57.771Z,8.58
2022-10-11T00:47:58.131Z,8.58
2022-10-11T00:48:58.592Z,8.58
2022-10-11T00:49:58.255Z,8.57
2022-10-11T00:50:57.500Z,8.58
2022-10-11T00:51:58.326Z,8.55
2022-10-11T00:52:58.323Z,8.54
2022-10-11T00:53:59.727Z,8.52
2022-10-11T00:54:59.624Z,8.54
2022-10-11T00:55:58.686Z,8.50
2022-10-11T00:56:59.420Z,8.49
2022-10-11T00:57:58.944Z,8.49
2022-10-11T00:59:00.664Z,8.49
2022-10-11T01:00:02.786Z,8.46
2022-10-11T01:00:59.718Z,8.43
2022-10-11T01:01:59.307Z,8.42
2022-10-11T01:03:00.167Z,8.42
2022-10-11T01:03:58.916Z,8.40
2022-10-11T01:05:25.642Z,8.40
2022-10-11T01:06:02.414Z,8.40
2022-10-11T01:07:02.715Z,8.40
2022-10-11T01:08:02.502Z,8.39
2022-10-11T01:09:06.460Z,8.39
2022-10-11T01:10:09.584Z,8.39
2022-10-11T01:11:10.327Z,8.34
2022-10-11T01:12:03.667Z,8.34
2022-10-11T01:13:00.890Z,8.36
2022-10-11T01:14:02.754Z,8.32
2022-10-11T01:15:00.456Z,8.34
2022-10-11T01:16:00.617Z,8.32
2022-10-11T01:16:59.279Z,8.31
2022-10-11T01:18:03.172Z,8.31
2022-10-11T01:19:08.436Z,8.29
2022-10-11T01:20:06.076Z,8.31
2022-10-11T01:21:01.460Z,8.29
2022-10-11T01:22:01.326Z,8.29
2022-10-11T01:23:00.658Z,8.29
2022-10-11T01:23:59.351Z,8.28
2022-10-11T01:25:04.554Z,8.28
2022-10-11T01:26:09.132Z,8.28
2022-10-11T01:26:59.434Z,8.28
2022-10-11T01:28:05.013Z,8.28
2022-10-11T01:29:03.570Z,8.28
2022-10-11T01:30:01.843Z,8.29
2022-10-11T01:30:59.088Z,8.28
2022-10-11T01:32:02.408Z,8.28
2022-10-11T01:32:59.067Z,8.29
2022-10-11T01:34:04.015Z,8.28
2022-10-11T01:35:03.257Z,8.28
2022-10-11T01:36:00.284Z,8.27
2022-10-11T01:36:59.282Z,8.27
2022-10-11T01:38:00.438Z,8.25
2022-10-11T01:39:04.723Z,8.25
2022-10-11T01:39:59.070Z,8.24
2022-10-11T01:40:58.634Z,8.25
2022-10-11T01:41:58.403Z,8.25
2022-10-11T01:43:00.478Z,8.22
2022-10-11T01:43:57.904Z,8.21
2022-10-11T01:44:59.729Z,8.21
2022-10-11T01:45:57.650Z,8.20
2022-10-11T01:46:58.197Z,8.20
2022-10-11T01:47:57.506Z,8.17
2022-10-11T01:48:58.676Z,8.13
2022-10-11T01:49:58.727Z,8.14
2022-10-11T01:50:58.052Z,8.13
2022-10-11T01:51:57.263Z,8.13
2022-10-11T01:52:58.244Z,8.12
2022-10-11T01:53:58.044Z,8.10
2022-10-11T01:55:09.183Z,8.09
2022-10-11T01:55:58.466Z,8.09
2022-10-11T01:56:59.097Z,8.09
2022-10-11T01:57:57.933Z,8.07
2022-10-11T01:58:56.802Z,8.07
2022-10-11T01:59:56.810Z,8.07
2022-10-11T02:00:57.099Z,8.06
2022-10-11T02:01:58.153Z,8.06
2022-10-11T02:02:56.626Z,8.04
2022-10-11T02:03:57.183Z,8.04
2022-10-11T02:04:56.950Z,8.04
2022-10-11T02:05:57.297Z,8.03
2022-10-11T02:06:57.075Z,8.02
2022-10-11T02:07:57.603Z,8.02
2022-10-11T02:08:56.913Z,8.00
2022-10-11T02:09:57.770Z,8.00
2022-10-11T02:10:56.663Z,8.00
2022-10-11T02:11:56.961Z,7.99
2022-10-11T02:12:56.578Z,7.99
2022-10-11T02:13:56.309Z,7.99
2022-10-11T02:14:56.304Z,7.96
2022-10-11T02:15:57.568Z,7.95
2022-10-11T02:16:56.706Z,7.95
2022-10-11T02:17:56.415Z,7.95
2022-10-11T02:18:56.793Z,7.94
2022-10-11T02:19:56.458Z,7.92
2022-10-11T02:20:56.509Z,7.91
2022-10-11T02:21:56.862Z,7.91
2022-10-11T02:22:56.243Z,7.89
2022-10-11T02:23:56.622Z,7.89
2022-10-11T02:24:56.169Z,7.89
2022-10-11T02:25:56.080Z,7.89
2022-10-11T02:26:56.386Z,7.89
2022-10-11T02:27:56.523Z,7.89
2022-10-11T02:28:56.326Z,7.89
2022-10-11T02:29:55.988Z,7.88
2022-10-11T02:30:55.908Z,7.86
2022-10-11T02:31:56.116Z,7.85
2022-10-11T02:32:56.002Z,7.84
2022-10-11T02:33:56.430Z,7.82
2022-10-11T02:34:56.212Z,7.82
2022-10-11T02:35:55.857Z,7.82
2022-10-11T02:36:55.830Z,7.81
2022-10-11T02:37:55.764Z,7.81
2022-10-11T02:38:55.987Z,7.81
2022-10-11T02:39:55.890Z,7.79
2022-10-11T02:40:55.768Z,7.77
2022-10-11T02:41:55.791Z,7.76
2022-10-11T02:42:55.842Z,7.74
2022-10-11T02:43:55.745Z,7.71
2022-10-11T02:44:55.604Z,7.66
2022-10-11T02:45:55.662Z,7.66
2022-10-11T02:46:55.806Z,7.62
2022-10-11T02:47:55.892Z,7.62
2022-10-11T02:48:55.869Z,7.58
2022-10-11T02:49:55.482Z,7.58
2022-10-11T02:50:55.624Z,7.57
2022-10-11T02:51:55.741Z,7.54
2022-10-11T02:52:55.644Z,7.54
2022-10-11T02:53:55.677Z,7.55
2022-10-11T02:54:55.546Z,7.55
2022-10-11T02:55:55.908Z,7.55
2022-10-11T02:56:55.479Z,7.55
2022-10-11T02:57:55.382Z,7.55
2022-10-11T02:58:55.434Z,7.54
2022-10-11T02:59:55.371Z,7.54
2022-10-11T03:00:55.582Z,7.51
2022-10-11T03:01:55.392Z,7.47
2022-10-11T03:02:55.368Z,7.45
2022-10-11T03:03:55.616Z,7.42
2022-10-11T03:04:55.324Z,7.44
2022-10-11T03:05:55.302Z,7.44
2022-10-11T03:06:55.305Z,7.45
2022-10-11T03:07:55.327Z,7.45
2022-10-11T03:08:55.318Z,7.44
2022-10-11T03:09:55.291Z,7.42
2022-10-11T03:10:55.274Z,7.42
2022-10-11T03:11:55.257Z,7.42
2022-10-11T03:12:55.246Z,7.44
2022-10-11T03:13:55.145Z,7.44
2022-10-11T03:14:55.338Z,7.42
2022-10-11T03:16:02.660Z,7.44
2022-10-11T03:17:00.748Z,7.45
2022-10-11T03:17:56.184Z,7.47
2022-10-11T03:18:55.202Z,7.48
2022-10-11T03:19:55.222Z,7.47
2022-10-11T03:20:55.122Z,7.45
2022-10-11T03:21:55.147Z,7.45
2022-10-11T03:22:55.223Z,7.45
2022-10-11T03:23:55.121Z,7.44
2022-10-11T03:24:59.647Z,7.45
2022-10-11T03:25:56.523Z,7.44
2022-10-11T03:26:55.073Z,7.44
2022-10-11T03:27:55.134Z,7.41
2022-10-11T03:28:55.594Z,7.41
2022-10-11T03:29:55.806Z,7.42
2022-10-11T03:30:55.062Z,7.42
2022-10-11T03:31:54.978Z,7.42
2022-10-11T03:32:55.084Z,7.41
2022-10-11T03:33:55.088Z,7.39
2022-10-11T03:34:54.978Z,7.41
2022-10-11T03:35:55.294Z,7.39
2022-10-11T03:36:55.004Z,7.37
2022-10-11T03:37:54.948Z,7.36
2022-10-11T03:38:55.116Z,7.36
2022-10-11T03:39:54.943Z,7.33
2022-10-11T03:40:55.034Z,7.34
2022-10-11T03:41:54.858Z,7.33
2022-10-11T03:42:56.784Z,7.33
2022-10-11T03:43:54.963Z,7.32
2022-10-11T03:44:55.282Z,7.33
2022-10-11T03:45:54.864Z,7.32
2022-10-11T03:46:54.870Z,7.32
2022-10-11T03:47:55.071Z,7.29
2022-10-11T03:48:55.098Z,7.27
2022-10-11T03:49:54.906Z,7.26
2022-10-11T03:50:55.169Z,7.23
2022-10-11T03:51:54.833Z,7.23
2022-10-11T03:52:54.942Z,7.23
2022-10-11T03:53:54.959Z,7.18
2022-10-11T03:54:54.934Z,7.19
2022-10-11T03:55:54.726Z,7.18
2022-10-11T03:56:54.747Z,7.18
2022-10-11T03:57:54.781Z,7.18
2022-10-11T03:58:55.132Z,7.18
2022-10-11T03:59:55.307Z,7.18
2022-10-11T04:00:54.995Z,7.19
2022-10-11T04:01:54.929Z,7.19
2022-10-11T04:02:55.286Z,7.19
2022-10-11T04:03:55.200Z,7.21
2022-10-11T04:04:55.143Z,7.21
2022-10-11T04:05:55.353Z,7.19
2022-10-11T04:06:54.902Z,7.19
2022-10-11T04:07:55.136Z,7.18
2022-10-11T04:08:55.206Z,7.16
2022-10-11T04:09:54.736Z,7.15
2022-10-11T04:10:55.541Z,7.18
2022-10-11T04:11:55.065Z,7.18
2022-10-11T04:12:55.161Z,7.18
2022-10-11T04:13:55.571Z,7.18
2022-10-11T04:14:55.028Z,7.18
2022-10-11T04:15:55.655Z,7.16
2022-10-11T04:16:57.381Z,7.18
2022-10-11T04:17:55.915Z,7.16
2022-10-11T04:18:54.742Z,7.15
2022-10-11T04:19:54.981Z,7.15
2022-10-11T04:20:57.528Z,7.14
2022-10-11T04:21:54.804Z,7.11
2022-10-11T04:22:56.463Z,7.09
2022-10-11T04:23:54.727Z,7.09
2022-10-11T04:24:54.692Z,7.11
2022-10-11T04:25:54.607Z,7.08
2022-10-11T04:26:55.453Z,7.11
2022-10-11T04:27:54.987Z,7.09
2022-10-11T04:28:54.518Z,7.09
2022-10-11T04:29:54.789Z,7.09
2022-10-11T04:30:55.051Z,7.09
2022-10-11T04:31:55.496Z,7.09
2022-10-11T04:32:54.668Z,7.08
2022-10-11T04:33:54.610Z,7.08
2022-10-11T04:34:55.419Z,7.08
2022-10-11T04:35:54.991Z,7.07
2022-10-11T04:36:55.563Z,7.07
2022-10-11T04:37:55.133Z,7.07
2022-10-11T04:38:56.150Z,7.05
2022-10-11T04:39:55.167Z,7.07
2022-10-11T04:40:56.056Z,7.05
2022-10-11T04:41:55.120Z,7.05
2022-10-11T04:42:55.028Z,7.04
2022-10-11T04:43:55.355Z,7.05
2022-10-11T04:44:54.866Z,7.04
2022-10-11T04:45:55.581Z,7.01
2022-10-11T04:46:54.597Z,7.01
2022-10-11T04:47:55.698Z,7.01
2022-10-11T04:48:54.438Z,7.00
2022-10-11T04:49:55.283Z,6.99
2022-10-11T04:50:54.750Z,6.97
2022-10-11T04:51:54.221Z,6.97
2022-10-11T04:52:54.632Z,6.97
2022-10-11T04:53:55.044Z,6.96
2022-10-11T04:54:54.192Z,6.94
2022-10-11T04:55:55.044Z,6.93
2022-10-11T04:56:54.199Z,6.91
2022-10-11T04:57:54.112Z,6.90
2022-10-11T04:58:54.405Z,6.91
2022-10-11T04:59:54.242Z,6.87
2022-10-11T05:00:55.333Z,6.87
2022-10-11T05:01:54.726Z,6.87
2022-10-11T05:02:55.048Z,6.86
2022-10-11T05:03:54.110Z,6.81
2022-10-11T05:04:53.868Z,6.79
2022-10-11T05:05:53.961Z,6.79
2022-10-11T05:06:54.074Z,6.76
2022-10-11T05:07:54.188Z,6.78
2022-10-11T05:08:54.387Z,6.78
2022-10-11T05:09:53.789Z,6.76
2022-10-11T05:10:54.527Z,6.78
2022-10-11T05:11:54.207Z,6.79
2022-10-11T05:12:53.744Z,6.79
2022-10-11T05:13:54.527Z,6.79
2022-10-11T05:14:54.563Z,6.79
2022-10-11T05:15:53.929Z,6.79
2022-10-11T05:16:54.377Z,6.79
2022-10-11T05:17:54.179Z,6.79
2022-10-11T05:18:54.705Z,6.81
2022-10-11T05:19:54.344Z,6.81
2022-10-11T05:20:55.794Z,6.81
2022-10-11T05:21:54.311Z,6.81
2022-10-11T05:22:54.701Z,6.75
2022-10-11T05:23:53.916Z,6.68
2022-10-11T05:24:54.799Z,6.57
2022-10-11T05:25:54.087Z,6.50
2022-10-11T05:26:54.059Z,6.43
2022-10-11T05:27:53.693Z,6.39
2022-10-11T05:28:54.004Z,6.38
2022-10-11T05:29:53.762Z,6.35
2022-10-11T05:30:53.497Z,6.36
2022-10-11T05:31:53.462Z,6.40
2022-10-11T05:32:53.470Z,6.43
2022-10-11T05:33:53.379Z,6.45
2022-10-11T05:34:53.472Z,6.51
2022-10-11T05:36:08.253Z,6.54
2022-10-11T05:37:07.143Z,6.57
2022-10-11T05:38:07.122Z,6.57
2022-10-11T05:41:33.055Z,6.63
2022-10-11T06:32:14.571Z,6.51
2022-10-11T06:33:09.436Z,6.50
2022-10-11T06:34:11.089Z,6.46
2022-10-11T06:35:11.765Z,6.46
2022-10-11T06:36:12.073Z,6.46
2022-10-11T06:37:11.853Z,6.48
2022-10-11T06:38:11.758Z,6.51
2022-10-11T06:39:09.010Z,6.50
2022-10-11T06:40:11.445Z,6.51
2022-10-11T06:41:08.835Z,6.51
2022-10-11T06:42:10.205Z,6.54
2022-10-11T06:43:09.244Z,6.55
2022-10-11T06:44:14.009Z,6.57
2022-10-11T06:45:10.798Z,6.58
2022-10-11T06:46:08.791Z,6.60
2022-10-11T06:47:09.089Z,6.60
2022-10-11T06:48:09.048Z,6.60
2022-10-11T06:49:08.778Z,6.61
2022-10-11T06:50:09.407Z,6.63
2022-10-11T06:51:11.520Z,6.64
2022-10-11T06:52:16.131Z,6.64
2022-10-11T06:53:12.587Z,6.68
2022-10-11T06:54:09.596Z,6.68
2022-10-11T06:55:08.985Z,6.69
2022-10-11T06:56:09.276Z,6.71
2022-10-11T06:57:09.831Z,6.73
2022-10-11T06:58:08.829Z,6.75
2022-10-11T06:59:11.002Z,6.76
2022-10-11T07:00:12.781Z,6.79
2022-10-11T07:01:13.248Z,6.79
2022-10-11T07:02:09.650Z,6.86
2022-10-11T07:03:08.448Z,6.93
2022-10-11T07:04:08.171Z,6.96
2022-10-11T07:05:09.573Z,6.97
2022-10-11T07:06:08.802Z,7.00
2022-10-11T07:07:08.987Z,6.97
2022-10-11T07:08:10.534Z,6.96
2022-10-11T07:09:09.347Z,6.93
2022-10-11T07:10:08.436Z,6.97
2022-10-11T07:11:09.170Z,6.99
2022-10-11T07:12:09.227Z,6.99
2022-10-11T07:13:16.292Z,6.99
2022-10-11T07:14:09.353Z,7.01
2022-10-11T07:15:09.169Z,7.07
2022-10-11T07:16:09.584Z,7.08
2022-10-11T07:17:08.429Z,7.08
2022-10-11T07:18:08.749Z,7.09
2022-10-11T07:19:08.645Z,7.12
2022-10-11T07:20:09.030Z,7.14
2022-10-11T07:21:08.385Z,7.14
2022-10-11T07:22:08.318Z,7.14
2022-10-11T07:23:09.346Z,7.15
2022-10-11T07:24:09.770Z,7.16
2022-10-11T07:25:08.244Z,7.16
2022-10-11T07:26:09.055Z,7.18
2022-10-11T07:27:08.904Z,7.21
2022-10-11T07:28:08.336Z,7.19
2022-10-11T07:29:08.351Z,7.19
2022-10-11T07:30:08.180Z,7.23
2022-10-11T07:31:08.370Z,7.24
2022-10-11T07:32:07.436Z,7.27
2022-10-11T07:33:07.639Z,7.27
2022-10-11T07:34:07.916Z,7.29
2022-10-11T07:35:08.531Z,7.30
2022-10-11T07:36:08.588Z,7.32
2022-10-11T07:37:07.734Z,7.36
2022-10-11T07:38:07.675Z,7.36
2022-10-11T07:39:07.684Z,7.36
2022-10-11T07:40:07.800Z,7.39
2022-10-11T07:41:07.513Z,7.42
2022-10-11T07:42:09.141Z,7.47
2022-10-11T07:43:07.822Z,7.48
2022-10-11T07:44:07.467Z,7.50
2022-10-11T07:45:08.067Z,7.54
2022-10-11T07:46:08.677Z,7.57
2022-10-11T07:47:11.044Z,7.60
2022-10-11T07:48:07.443Z,7.63
2022-10-11T07:49:07.493Z,7.66
2022-10-11T07:50:07.426Z,7.70
2022-10-11T07:51:07.675Z,7.73
2022-10-11T07:52:07.221Z,7.76
2022-10-11T07:53:07.949Z,7.82
2022-10-11T07:54:07.735Z,7.86
2022-10-11T07:55:07.462Z,7.89
2022-10-11T07:56:07.838Z,7.92
2022-10-11T07:57:08.103Z,7.96
2022-10-11T07:58:08.278Z,8.00
2022-10-11T07:59:07.901Z,8.04
2022-10-11T08:00:07.735Z,8.09
2022-10-11T08:01:08.105Z,8.20
2022-10-11T08:02:07.198Z,8.25
2022-10-11T08:03:07.495Z,8.29
2022-10-11T08:04:07.320Z,8.37
2022-10-11T08:05:07.081Z,8.46
2022-10-11T08:06:10.177Z,8.54
2022-10-11T08:07:07.779Z,8.55
2022-10-11T08:08:07.609Z,8.55
2022-10-11T08:09:07.935Z,8.60
2022-10-11T08:10:07.549Z,8.64
2022-10-11T08:11:10.617Z,8.68
2022-10-11T08:12:07.560Z,8.78
2022-10-11T08:13:07.188Z,9.00
2022-10-11T08:14:08.986Z,9.12
2022-10-11T08:15:07.140Z,9.10
2022-10-11T08:16:08.698Z,9.08
2022-10-11T08:17:08.191Z,9.08
2022-10-11T08:18:08.161Z,9.08
2022-10-11T08:19:07.872Z,9.17
2022-10-11T08:20:08.411Z,9.30
2022-10-11T08:21:07.943Z,9.34
2022-10-11T08:22:11.144Z,9.27
2022-10-11T08:23:10.469Z,9.23
2022-10-11T08:24:14.433Z,9.23
2022-10-11T08:25:11.391Z,9.26
2022-10-11T08:26:25.116Z,9.31
2022-10-11T08:27:11.960Z,9.30
2022-10-11T08:28:24.799Z,9.31
2022-10-11T08:31:14.976Z,9.40
2022-10-11T08:32:08.692Z,9.42
2022-10-11T08:33:15.339Z,9.48
2022-10-11T08:34:08.190Z,9.49
2022-10-11T08:35:21.039Z,9.49
2022-10-11T08:37:31.541Z,9.52
2022-10-11T08:38:29.680Z,9.52
2022-10-11T08:39:26.064Z,9.55
2022-10-11T08:39:57.378Z,9.58
2022-10-11T08:40:54.418Z,9.60
2022-10-11T08:41:51.824Z,9.59
2022-10-11T08:45:10.493Z,9.65
2022-10-11T08:45:11.454Z,9.67
2022-10-11T08:46:08.602Z,9.70
2022-10-11T08:47:06.017Z,9.70
2022-10-11T08:48:07.847Z,9.74
2022-10-11T08:49:09.130Z,9.77
2022-10-11T08:50:08.395Z,9.80
2022-10-11T08:51:08.407Z,9.85
2022-10-11T08:52:05.962Z,9.88
2022-10-11T08:53:14.264Z,9.91
2022-10-11T08:54:08.771Z,9.95
2022-10-11T08:55:07.126Z,9.96
2022-10-11T08:56:06.504Z,10.02
2022-10-11T08:57:07.767Z,10.09
2022-10-11T08:58:11.233Z,10.11
2022-10-11T08:59:05.671Z,10.18
2022-10-11T09:00:06.012Z,10.24
2022-10-11T09:01:05.863Z,10.28
2022-10-11T09:02:06.093Z,10.29
2022-10-11T09:03:08.866Z,10.34
2022-10-11T09:04:05.650Z,10.38
2022-10-11T09:05:05.645Z,10.39
2022-10-11T09:06:05.760Z,10.46
2022-10-11T09:07:08.623Z,10.49
2022-10-11T09:08:08.149Z,10.52
2022-10-11T09:09:06.075Z,10.55
2022-10-11T09:10:06.296Z,10.60
2022-10-11T09:11:06.363Z,10.62
2022-10-11T09:12:05.618Z,10.65
2022-10-11T09:13:06.976Z,10.69
2022-10-11T09:14:08.535Z,10.73
2022-10-11T09:15:10.268Z,10.83
2022-10-11T09:16:07.611Z,10.90
2022-10-11T09:17:19.356Z,10.99
2022-10-11T09:18:11.903Z,11.05
2022-10-11T09:19:08.163Z,11.08
2022-10-11T10:18:21.760Z,12.52
2022-10-11T10:19:13.115Z,12.54
2022-10-11T10:20:13.149Z,12.55
2022-10-11T10:21:11.107Z,12.56
2022-10-11T10:22:11.909Z,12.59
2022-10-11T10:23:10.130Z,12.63
2022-10-11T10:24:09.830Z,12.63
2022-10-11T10:25:09.391Z,12.70
2022-10-11T10:26:17.067Z,12.77
2022-10-11T10:27:13.944Z,12.84
2022-10-11T10:28:10.226Z,12.84
2022-10-11T10:29:09.143Z,12.84
2022-10-11T10:30:09.472Z,12.79
2022-10-11T10:31:10.430Z,12.84
2022-10-11T10:32:14.188Z,12.87
2022-10-11T10:33:10.941Z,12.89
2022-10-11T10:34:08.995Z,12.94
2022-10-11T10:35:10.877Z,12.98
2022-10-11T10:36:09.804Z,12.98
2022-10-11T10:37:09.137Z,12.99
2022-10-11T10:38:11.046Z,13.01
2022-10-11T10:39:10.192Z,13.04
2022-10-11T10:40:15.267Z,13.07
2022-10-11T10:41:10.606Z,13.10
2022-10-11T10:42:09.950Z,13.04
2022-10-11T10:43:14.761Z,13.07
2022-10-11T10:44:42.345Z,13.07
2022-10-11T10:45:12.203Z,13.10
2022-10-11T10:46:11.611Z,13.12
2022-10-11T10:47:11.548Z,13.12
2022-10-11T10:48:08.482Z,13.12
2022-10-11T10:49:41.129Z,13.14
2022-10-11T10:50:16.089Z,13.14
2022-10-11T10:51:10.522Z,13.16
2022-10-11T10:52:10.541Z,13.17
2022-10-11T10:53:08.889Z,13.16
2022-10-11T10:54:09.000Z,13.17
2022-10-11T10:55:09.240Z,13.22
2022-10-11T10:56:13.111Z,13.27
2022-10-11T10:57:08.095Z,13.28
2022-10-11T10:58:09.607Z,13.27
2022-10-11T10:59:16.219Z,13.25
2022-10-11T11:00:18.577Z,13.28
2022-10-11T11:01:10.944Z,13.31
2022-10-11T11:03:35.696Z,13.27
2022-10-11T11:04:31.260Z,13.25
2022-10-11T11:05:31.768Z,13.27
2022-10-11T11:06:35.663Z,13.32
2022-10-11T11:07:30.917Z,13.39
2022-10-11T11:08:33.002Z,13.46
2022-10-11T11:09:40.488Z,13.62
2022-10-11T11:11:14.463Z,13.90
2022-10-11T11:12:03.688Z,14.16
2022-10-11T11:13:05.241Z,14.48
2022-10-11T11:15:53.702Z,14.42
2022-10-11T11:16:19.402Z,14.31
2022-10-11T11:17:19.258Z,14.21
2022-10-11T11:18:17.047Z,14.19
2022-10-11T11:19:22.602Z,14.16
2022-10-11T11:20:16.235Z,14.16
2022-10-11T11:21:17.345Z,14.13
2022-10-11T11:22:17.747Z,14.23
2022-10-11T11:23:26.448Z,14.30
2022-10-11T11:24:22.147Z,14.34
2022-10-11T11:25:16.293Z,14.46
2022-10-11T11:26:16.341Z,14.66
2022-10-11T11:27:16.237Z,14.80
2022-10-11T11:28:16.270Z,14.83
2022-10-11T11:29:15.956Z,14.87
2022-10-11T11:30:16.249Z,14.86
2022-10-11T11:31:16.090Z,14.85
2022-10-11T11:32:19.692Z,14.80
2022-10-11T11:33:16.552Z,14.69
2022-10-11T11:34:17.409Z,14.66
2022-10-11T11:35:16.200Z,14.80
2022-10-11T11:36:16.814Z,14.86
2022-10-11T11:37:16.715Z,14.67
2022-10-11T11:38:17.753Z,14.56
2022-10-11T11:39:17.318Z,14.45
2022-10-11T11:40:28.379Z,14.38
2022-10-11T11:41:21.029Z,14.24
2022-10-11T11:42:17.119Z,14.16
2022-10-11T11:43:26.579Z,14.08
2022-10-11T11:44:18.022Z,13.98
2022-10-11T11:45:16.107Z,13.91
2022-10-11T11:46:19.029Z,13.84
2022-10-11T11:47:17.253Z,13.79
2022-10-11T11:48:19.872Z,13.75
2022-10-11T11:49:17.465Z,13.73
2022-10-11T11:51:44.967Z,13.69
2022-10-11T11:52:28.701Z,13.66
2022-10-11T11:53:27.702Z,13.65
2022-10-11T11:54:28.723Z,13.65
2022-10-11T11:55:30.334Z,13.62
2022-10-11T11:56:27.093Z,13.59
2022-10-11T11:57:27.543Z,13.61
2022-10-11T11:58:27.092Z,13.76
2022-10-11T11:59:27.776Z,13.96
2022-10-11T12:00:27.048Z,14.08
2022-10-11T12:01:34.541Z,14.20
2022-10-11T12:02:28.195Z,14.38
2022-10-11T12:03:27.920Z,14.45
2022-10-11T12:04:28.068Z,14.39
2022-10-11T12:05:27.113Z,14.44
2022-10-11T12:06:27.325Z,14.57
2022-10-11T12:07:27.770Z,14.75
2022-10-11T12:08:28.910Z,14.90
2022-10-11T12:09:27.079Z,14.86
2022-10-11T12:10:28.318Z,15.05
2022-10-11T12:11:33.027Z,15.44
2022-10-11T12:12:30.361Z,15.66
2022-10-11T12:13:36.116Z,15.74
2022-10-11T12:14:30.408Z,15.60
2022-10-11T12:15:30.340Z,15.44
2022-10-11T12:16:28.020Z,15.23
2022-10-11T12:17:31.271Z,15.13
2022-10-11T12:18:36.291Z,14.98
2022-10-11T12:19:28.204Z,14.90
2022-10-11T12:20:29.864Z,14.87
2022-10-11T12:21:26.853Z,14.95
2022-10-11T12:22:29.891Z,15.04
2022-10-11T12:23:26.589Z,15.07
2022-10-11T12:24:27.129Z,15.05
2022-10-11T12:25:27.181Z,15.07
2022-10-11T12:26:28.168Z,15.11
2022-10-11T12:27:26.867Z,15.07
2022-10-11T12:28:27.539Z,15.03
2022-10-11T12:29:29.049Z,15.00
2022-10-11T12:30:26.721Z,15.00
2022-10-11T12:31:27.449Z,15.04
2022-10-11T12:32:28.220Z,15.00
2022-10-11T12:33:27.697Z,14.93
2022-10-11T12:34:27.887Z,14.86
2022-10-11T12:35:29.671Z,14.83
2022-10-11T12:36:27.376Z,14.75
2022-10-11T12:37:38.069Z,14.71
2022-10-11T12:40:54.795Z,14.59
2022-10-11T12:41:29.400Z,14.52
2022-10-11T12:42:32.948Z,14.46
2022-10-11T12:43:28.282Z,14.44
2022-10-11T12:44:29.135Z,14.39
2022-10-11T12:45:31.508Z,14.35
2022-10-11T12:46:28.998Z,14.31
2022-10-11T12:47:28.988Z,14.30
2022-10-11T12:48:33.955Z,14.31
2022-10-11T12:49:30.680Z,14.30
2022-10-11T12:50:28.064Z,14.30
2022-10-11T12:51:28.543Z,14.34
2022-10-11T12:52:28.663Z,14.44
2022-10-11T12:53:28.701Z,14.48
2022-10-11T12:54:31.012Z,14.44
2022-10-11T12:55:29.022Z,14.36
2022-10-11T12:56:28.210Z,14.35
2022-10-11T12:57:28.059Z,14.35
2022-10-11T12:58:28.292Z,14.41
2022-10-11T12:59:29.196Z,14.49
2022-10-11T13:00:29.601Z,14.56
2022-10-11T13:01:30.604Z,14.64
2022-10-11T13:02:29.083Z,14.71
2022-10-11T13:03:31.988Z,14.78
2022-10-11T13:04:28.100Z,14.79
2022-10-11T13:05:27.765Z,14.82
2022-10-11T13:06:27.793Z,14.85
2022-10-11T13:07:29.721Z,14.86
2022-10-11T13:08:28.111Z,14.87
2022-10-11T13:09:28.501Z,14.91
2022-10-11T13:10:34.833Z,14.93
2022-10-11T13:11:27.861Z,14.93
2022-10-11T13:12:31.595Z,14.93
2022-10-11T13:13:30.756Z,14.94
2022-10-11T13:14:29.671Z,14.94
2022-10-11T13:15:33.691Z,14.94
2022-10-11T13:16:29.859Z,14.97
2022-10-11T13:17:28.916Z,14.90
2022-10-11T13:18:35.173Z,14.87
2022-10-11T13:19:32.445Z,14.90
2022-10-11T13:20:27.696Z,14.91
2022-10-11T13:21:31.063Z,14.93
2022-10-11T13:22:29.475Z,14.94
2022-10-11T13:23:28.363Z,14.97
2022-10-11T13:24:33.380Z,15.00
2022-10-11T13:25:27.824Z,15.00
2022-10-11T13:26:33.048Z,14.97
2022-10-11T13:27:32.259Z,14.98
2022-10-11T13:28:30.725Z,14.93
2022-10-11T13:29:28.582Z,14.93
2022-10-11T13:30:27.943Z,14.90
2022-10-11T13:31:31.538Z,14.86
2022-10-11T13:32:28.226Z,14.80
2022-10-11T13:33:29.374Z,14.74
2022-10-11T13:38:58.936Z,14.48
2022-10-11T13:39:56.963Z,14.44
2022-10-11T13:40:56.877Z,14.41
2022-10-11T13:41:55.626Z,14.41
2022-10-11T13:42:55.539Z,14.39
2022-10-11T13:43:55.689Z,14.39
2022-10-11T13:44:55.863Z,14.39
2022-10-11T13:45:56.039Z,14.38
2022-10-11T13:46:57.516Z,14.38
2022-10-11T13:49:32.202Z,14.31
2022-10-11T13:50:28.318Z,14.27
2022-10-11T13:51:27.216Z,14.24
2022-10-11T13:52:27.647Z,14.23
2022-10-11T13:53:29.675Z,14.21
2022-10-11T13:54:27.879Z,14.21
2022-10-11T13:55:28.485Z,14.20
2022-10-11T13:56:28.581Z,14.20
2022-10-11T13:57:28.768Z,14.20
2022-10-11T13:58:27.659Z,14.20
2022-10-11T13:59:28.060Z,14.19
2022-10-11T14:00:27.333Z,14.19
2022-10-11T14:01:26.723Z,14.13
2022-10-11T14:02:26.687Z,14.11
2022-10-11T14:03:26.743Z,14.05
2022-10-11T14:04:30.241Z,14.02
2022-10-11T14:05:28.076Z,13.99
2022-10-11T14:06:26.500Z,13.98
2022-10-11T14:07:26.805Z,13.93
2022-10-11T14:08:27.634Z,13.91
2022-10-11T14:09:27.749Z,13.91
2022-10-11T14:10:27.356Z,13.91
2022-10-11T14:11:27.210Z,13.90
2022-10-11T14:12:29.764Z,13.91
2022-10-11T14:13:27.420Z,13.91
2022-10-11T14:14:27.412Z,13.93
2022-10-11T14:15:26.727Z,13.91
2022-10-11T14:16:27.137Z,13.90
2022-10-11T14:17:27.033Z,13.88
2022-10-11T14:18:26.905Z,13.90
2022-10-11T14:19:26.669Z,13.90
2022-10-11T14:20:32.270Z,13.88
2022-10-11T14:21:28.155Z,13.88
2022-10-11T14:22:26.604Z,13.86
2022-10-11T14:23:27.209Z,13.87
2022-10-11T14:24:26.815Z,13.84
2022-10-11T14:25:29.188Z,13.80
2022-10-11T14:26:29.666Z,13.79
2022-10-11T14:27:26.683Z,13.79
2022-10-11T14:28:26.950Z,13.76
2022-10-11T14:29:27.362Z,13.72
2022-10-11T14:30:30.684Z,13.72
2022-10-11T14:31:26.239Z,13.72
2022-10-11T14:32:28.372Z,13.72
2022-10-11T14:33:27.119Z,13.72
2022-10-11T14:34:26.955Z,13.71
2022-10-11T14:35:27.792Z,13.73
2022-10-11T14:36:26.622Z,13.73
2022-10-11T14:37:28.280Z,13.72
2022-10-11T14:38:28.591Z,13.71
2022-10-11T14:39:26.060Z,13.71
2022-10-11T14:40:26.143Z,13.72
2022-10-11T14:41:26.636Z,13.75
2022-10-11T14:42:28.568Z,13.73
2022-10-11T14:43:32.464Z,13.73
2022-10-11T14:44:26.767Z,13.75
2022-10-11T14:45:26.810Z,13.76
2022-10-11T14:46:27.546Z,13.79
2022-10-11T14:47:31.041Z,13.76
2022-10-11T14:48:54.254Z,13.80
2022-10-11T14:49:31.156Z,13.81
2022-10-11T14:50:27.802Z,13.81
2022-10-11T14:51:30.026Z,13.84
2022-10-11T14:52:41.302Z,13.86
2022-10-11T14:53:28.345Z,13.87
2022-10-11T14:54:27.601Z,13.87
2022-10-11T14:55:27.067Z,13.88
2022-10-11T14:56:25.718Z,13.90
2022-10-11T14:57:27.518Z,13.91
2022-10-11T14:58:28.590Z,13.91
2022-10-11T14:59:26.373Z,13.91
2022-10-11T15:00:26.064Z,13.94
2022-10-11T15:01:25.887Z,13.94
2022-10-11T15:02:25.605Z,13.94
2022-10-11T15:03:27.503Z,13.98
2022-10-11T15:04:26.720Z,13.94
2022-10-11T15:05:32.629Z,13.96
2022-10-11T15:06:32.919Z,13.96
2022-10-11T15:07:28.056Z,13.93
2022-10-11T15:08:25.957Z,13.93
2022-10-11T15:09:29.871Z,13.93
2022-10-11T15:10:26.678Z,13.93
2022-10-11T15:11:26.117Z,13.94
2022-10-11T15:12:26.812Z,13.93
2022-10-11T15:13:26.213Z,13.93
2022-10-11T15:14:26.273Z,13.91
2022-10-11T15:15:26.410Z,13.91